Time;durP1;ratioP1;P1;durP2;ratioP2;P2;SDS_P1;SDS_P2;PMS_P1;PMS_P2;Temp;Humidity;BMP_temperature;BMP_pressure;BME280_temperature;BME280_humidity;BME280_pressure;Samples;Min_cycle;Max_cycle;Signal;HPM_P1;HPM_P2
2022/10/02 00:00:25;;;;;;;7.87;3.20;;;;;;;22.96;63.82;98454.81;4980495;28;20246;-90
2022/10/02 00:03:20;;;;;;;5.77;3.53;;;;;;;22.68;65.70;98406.38;4975030;28;20192;-88
2022/10/02 00:05:52;;;;;;;6.03;4.10;;;;;;;22.59;67.46;98364.63;4974771;28;20175;-90
2022/10/02 00:08:38;;;;;;;6.67;3.40;;;;;;;22.59;67.77;98329.91;4974551;28;20173;-91
2022/10/02 00:11:35;;;;;;;5.83;3.47;;;;;;;22.58;67.43;98294.38;4975447;28;20176;-91
2022/10/02 00:14:07;;;;;;;5.50;3.30;;;;;;;22.61;67.64;98242.44;4974229;28;20622;-89
2022/10/02 00:16:44;;;;;;;7.07;3.50;;;;;;;22.59;68.09;98183.81;4975551;28;20172;-88
2022/10/02 00:19:16;;;;;;;7.70;3.23;;;;;;;22.45;68.80;98131.22;4974500;28;20542;-89
2022/10/02 00:22:15;;;;;;;8.03;3.27;;;;;;;22.29;70.02;98114.50;4974904;28;20668;-90
2022/10/02 00:24:52;;;;;;;11.73;4.33;;;;;;;22.06;71.32;98119.84;4974032;28;20193;-88
2022/10/02 00:27:55;;;;;;;8.40;4.13;;;;;;;21.98;71.81;98128.72;4973941;28;20334;-90
2022/10/02 00:30:23;;;;;;;7.83;4.00;;;;;;;21.99;71.42;98156.22;4974665;28;20183;-90
2022/10/02 00:33:12;;;;;;;8.90;4.90;;;;;;;21.84;72.17;98208.66;4975430;28;20271;-89
2022/10/02 00:36:09;;;;;;;11.77;5.17;;;;;;;21.69;73.38;98269.06;4975366;28;20643;-90
2022/10/02 00:38:58;;;;;;;9.43;4.53;;;;;;;21.67;74.06;98317.22;4975570;28;20184;-90
2022/10/02 00:42:01;;;;;;;11.70;5.23;;;;;;;21.85;72.98;98314.38;4969223;28;20295;-90
2022/10/02 00:44:55;;;;;;;7.23;4.33;;;;;;;21.75;73.34;98314.53;4969735;28;20200;-90
2022/10/02 00:47:39;;;;;;;8.27;4.80;;;;;;;21.77;72.81;98314.38;4973071;28;20574;-90
2022/10/02 00:50:27;;;;;;;12.27;4.63;;;;;;;21.93;72.38;98320.53;4973123;28;20276;-89
2022/10/02 00:53:30;;;;;;;8.60;4.27;;;;;;;22.12;71.57;98321.16;4975011;28;20726;-91
2022/10/02 00:56:32;;;;;;;10.77;4.13;;;;;;;22.23;71.04;98332.25;4973866;28;20179;-90
2022/10/02 00:59:39;;;;;;;6.83;3.53;;;;;;;22.27;70.76;98341.59;4974971;28;20175;-89
2022/10/02 01:02:32;;;;;;;8.97;4.37;;;;;;;22.21;71.02;98368.16;4967348;28;20267;-89
2022/10/02 01:05:11;;;;;;;5.07;3.97;;;;;;;22.20;70.59;98374.47;4969102;28;20271;-90
2022/10/02 01:07:41;;;;;;;8.43;4.07;;;;;;;22.17;70.89;98374.84;4973962;28;20184;-90
2022/10/02 01:10:24;;;;;;;10.67;4.60;;;;;;;22.18;71.18;98389.84;4974386;28;20260;-89
2022/10/02 01:12:51;;;;;;;8.10;4.23;;;;;;;22.16;71.17;98400.72;4974772;28;20161;-89
2022/10/02 01:15:21;;;;;;;6.27;3.73;;;;;;;22.14;71.27;98400.06;4972343;28;20561;-90
2022/10/02 01:18:01;;;;;;;7.30;3.67;;;;;;;22.07;71.37;98411.56;4988109;28;20196;-90
2022/10/02 01:20:40;;;;;;;6.07;3.23;;;;;;;22.00;71.85;98414.09;4974615;28;20224;-90
2022/10/02 01:23:29;;;;;;;5.73;3.70;;;;;;;21.90;72.48;98408.09;4973889;28;20184;-89
2022/10/02 01:25:56;;;;;;;8.97;3.83;;;;;;;22.11;71.69;98394.22;4970973;28;20197;-90
2022/10/02 01:28:23;;;;;;;6.77;3.17;;;;;;;22.22;71.03;98375.97;4972974;28;20240;-89
2022/10/02 01:30:56;;;;;;;5.17;3.20;;;;;;;22.27;70.77;98351.44;4974684;28;20301;-89
2022/10/02 01:33:23;;;;;;;9.40;3.17;;;;;;;22.20;70.33;98343.28;4976235;28;20192;-89
2022/10/02 01:35:51;;;;;;;8.67;3.13;;;;;;;22.02;71.12;98342.69;4973081;28;20517;-91
2022/10/02 01:38:22;;;;;;;4.73;2.73;;;;;;;21.84;72.10;98363.38;4974306;28;20206;-91
2022/10/02 01:40:50;;;;;;;7.83;2.90;;;;;;;21.86;72.13;98364.06;4971545;28;20196;-91
2022/10/02 01:43:25;;;;;;;6.27;2.60;;;;;;;21.90;71.97;98360.06;4974605;28;20199;-90
2022/10/02 01:45:59;;;;;;;10.27;3.50;;;;;;;22.11;70.95;98379.03;4974157;28;20207;-89
2022/10/02 01:49:18;;;;;;;7.27;3.40;;;;;;;22.22;70.62;98418.69;4974246;28;20509;-90
2022/10/02 01:52:10;;;;;;;9.83;3.23;;;;;;;22.44;69.66;98412.63;4974981;28;20218;-90
2022/10/02 01:55:26;;;;;;;5.70;3.03;;;;;;;22.54;68.62;98391.88;4973758;28;20226;-90
2022/10/02 01:58:06;;;;;;;7.67;2.87;;;;;;;22.66;67.98;98359.47;4961073;28;20209;-89
2022/10/02 02:00:51;;;;;;;4.97;2.80;;;;;;;22.73;68.32;98341.72;4957941;28;20168;-89
2022/10/02 02:03:46;;;;;;;5.33;2.73;;;;;;;22.70;68.04;98353.59;4973989;28;20172;-88
2022/10/02 02:06:58;;;;;;;6.30;3.27;;;;;;;22.71;68.40;98367.78;4973596;28;20184;-89
2022/10/02 02:09:54;;;;;;;5.43;2.80;;;;;;;22.64;69.03;98394.38;4969771;28;20638;-89
2022/10/02 02:12:47;;;;;;;5.47;2.97;;;;;;;22.57;69.70;98406.72;4957964;28;20176;-90
2022/10/02 02:15:29;;;;;;;5.00;2.43;;;;;;;22.44;70.05;98425.97;4972900;28;20180;-90
2022/10/02 02:18:10;;;;;;;4.97;2.83;;;;;;;22.45;70.14;98430.31;4973360;28;20188;-90
2022/10/02 02:20:46;;;;;;;5.63;2.40;;;;;;;22.59;69.80;98424.25;4974026;28;20682;-89
2022/10/02 02:23:19;;;;;;;6.50;3.23;;;;;;;22.68;69.48;98435.75;4973694;28;20186;-90
2022/10/02 02:25:50;;;;;;;5.10;2.70;;;;;;;22.70;69.50;98446.25;4956632;28;20265;-90
2022/10/02 02:28:21;;;;;;;4.90;2.77;;;;;;;22.59;70.10;98448.28;4973100;28;20227;-90
2022/10/02 02:30:52;;;;;;;6.60;2.83;;;;;;;22.61;70.08;98446.25;4977337;28;20247;-91
2022/10/02 02:33:38;;;;;;;6.30;2.73;;;;;;;22.57;69.98;98450.28;4960985;28;20192;-90
2022/10/02 02:36:15;;;;;;;8.13;3.97;;;;;;;22.67;70.03;98460.00;4977616;28;20179;-90
2022/10/02 02:38:53;;;;;;;5.50;3.00;;;;;;;22.84;68.94;98464.25;4977525;28;20266;-90
2022/10/02 02:41:26;;;;;;;16.30;5.73;;;;;;;22.96;68.59;98454.81;4977040;28;20243;-91
2022/10/02 02:44:17;;;;;;;19.80;8.60;;;;;;;22.90;68.58;98447.53;4976017;28;20282;-89
2022/10/02 02:47:15;;;;;;;25.77;10.70;;;;;;;22.94;68.14;98454.16;4976369;28;20184;-90
2022/10/02 02:50:16;;;;;;;6.57;3.23;;;;;;;22.93;67.53;98441.84;4989527;28;20215;-89
2022/10/02 02:52:56;;;;;;;5.67;3.50;;;;;;;22.92;67.48;98440.16;4977075;28;20188;-89
2022/10/02 02:55:29;;;;;;;19.73;8.87;;;;;;;22.83;67.04;98442.03;4977515;28;20251;-88
2022/10/02 02:58:10;;;;;;;17.83;6.07;;;;;;;22.67;68.19;98435.94;4976133;28;20168;-88
2022/10/02 03:00:39;;;;;;;25.87;9.17;;;;;;;22.68;66.88;98432.25;4976336;28;20240;-89
2022/10/02 03:03:06;;;;;;;6.00;2.53;;;;;;;22.73;66.23;98433.41;4976103;28;20177;-88
2022/10/02 03:05:38;;;;;;;9.90;4.00;;;;;;;22.61;66.38;98440.91;4976713;28;20654;-89
2022/10/02 03:08:36;;;;;;;20.23;6.57;;;;;;;22.56;66.10;98453.97;4976037;28;20584;-89
2022/10/02 03:11:28;;;;;;;8.60;4.10;;;;;;;22.54;66.72;98455.13;4966466;28;20185;-91
2022/10/02 03:14:29;;;;;;;10.43;4.00;;;;;;;22.66;65.89;98463.66;4976665;28;20184;-90
2022/10/02 03:17:09;;;;;;;9.37;3.43;;;;;;;22.69;65.52;98468.66;4976224;28;20270;-91
2022/10/02 03:20:07;;;;;;;13.80;6.33;;;;;;;22.50;65.98;98464.53;4976497;28;20184;-89
2022/10/02 03:23:05;;;;;;;14.43;3.60;;;;;;;22.37;66.60;98459.72;4975724;28;20339;-92
2022/10/02 03:25:53;;;;;;;4.40;2.00;;;;;;;22.51;66.10;98472.34;4962874;28;20280;-88
2022/10/02 03:28:50;;;;;;;5.40;2.17;;;;;;;22.45;66.21;98462.38;4976071;28;20236;-90
2022/10/02 03:31:19;;;;;;;5.70;2.87;;;;;;;22.54;66.16;98464.00;4977005;28;20173;-90
2022/10/02 03:33:49;;;;;;;14.90;6.13;;;;;;;22.60;66.10;98466.00;4958883;28;20207;-89
2022/10/02 03:36:19;;;;;;;8.23;3.13;;;;;;;22.57;66.55;98450.28;4959176;28;20188;-90
2022/10/02 03:38:48;;;;;;;5.77;2.63;;;;;;;22.67;65.58;98457.31;4975429;28;20270;-88
2022/10/02 03:41:14;;;;;;;10.90;3.07;;;;;;;22.72;65.52;98458.44;4974419;28;20606;-90
2022/10/02 03:43:41;;;;;;;2.80;1.47;;;;;;;22.71;65.53;98464.81;4975448;28;20287;-91
2022/10/02 03:46:07;;;;;;;4.93;1.57;;;;;;;22.53;66.32;98466.84;4966735;28;20228;-89
2022/10/02 03:48:35;;;;;;;6.23;2.20;;;;;;;22.37;67.11;98470.41;4972585;28;20233;-89
2022/10/02 03:51:01;;;;;;;5.47;2.20;;;;;;;22.38;67.09;98480.06;4975969;28;20187;-89
2022/10/02 03:53:35;;;;;;;5.57;2.50;;;;;;;22.45;66.72;98488.25;4975897;28;20180;-90
2022/10/02 03:56:38;;;;;;;8.07;3.07;;;;;;;22.44;66.78;98492.75;4960574;28;20215;-89
2022/10/02 03:59:14;;;;;;;14.83;5.83;;;;;;;22.45;66.61;98494.41;4975377;28;20212;-90
2022/10/02 04:01:50;;;;;;;4.23;1.90;;;;;;;22.50;66.53;98486.72;4975495;28;20203;-92
2022/10/02 04:04:25;;;;;;;6.47;2.03;;;;;;;22.36;67.28;98495.44;4975839;28;20605;-89
2022/10/02 04:07:16;;;;;;;14.33;2.63;;;;;;;22.43;67.21;98496.41;4976265;28;20184;-89
2022/10/02 04:10:21;;;;;;;6.37;1.97;;;;;;;22.18;68.82;98500.13;4975879;28;20180;-90
2022/10/02 04:13:10;;;;;;;3.83;2.00;;;;;;;21.65;70.89;98503.28;4965046;28;20180;-90
2022/10/02 04:16:07;;;;;;;4.47;2.20;;;;;;;21.38;72.31;98515.06;4975064;28;20593;-92
2022/10/02 04:18:58;;;;;;;3.57;1.40;;;;;;;21.41;72.97;98528.09;4974251;28;20196;-89
2022/10/02 04:21:57;;;;;;;6.50;1.30;;;;;;;21.32;74.08;98522.91;4958708;28;20216;-89
2022/10/02 04:24:49;;;;;;;4.60;1.27;;;;;;;21.36;74.45;98532.22;4975116;28;20289;-90
2022/10/02 04:27:22;;;;;;;2.23;1.10;;;;;;;21.28;75.37;98538.38;4974523;28;20209;-91
2022/10/02 04:30:05;;;;;;;4.30;1.70;;;;;;;21.19;76.42;98541.19;4975194;28;20270;-88
2022/10/02 04:32:35;;;;;;;3.07;1.40;;;;;;;21.24;76.84;98533.53;4973740;28;20195;-91
2022/10/02 04:35:12;;;;;;;4.63;0.83;;;;;;;21.19;76.74;98530.53;4974539;28;20188;-88
2022/10/02 04:38:02;;;;;;;4.03;1.00;;;;;;;21.15;77.46;98540.66;4975246;28;20184;-88
2022/10/02 04:40:28;;;;;;;1.90;0.83;;;;;;;21.02;78.60;98550.91;4975677;28;20173;-90
2022/10/02 04:43:15;;;;;;;2.73;0.90;;;;;;;21.11;77.73;98550.00;4973053;28;20703;-89
2022/10/02 04:45:55;;;;;;;3.53;0.60;;;;;;;21.07;77.60;98553.97;4974455;28;20203;-88
2022/10/02 04:48:29;;;;;;;0.60;0.40;;;;;;;20.87;78.83;98562.34;4975380;28;20183;-91
2022/10/02 04:51:21;;;;;;;1.13;0.50;;;;;;;20.94;78.28;98574.84;4975077;28;20251;-88
2022/10/02 04:53:50;;;;;;;1.30;0.63;;;;;;;21.07;77.32;98567.28;4975233;28;20246;-88
2022/10/02 04:56:53;;;;;;;1.70;0.77;;;;;;;21.20;76.52;98583.66;4973959;28;20192;-89
2022/10/02 04:59:36;;;;;;;1.30;0.77;;;;;;;21.38;75.33;98583.59;4974283;28;20541;-89
2022/10/02 05:02:05;;;;;;;1.57;0.83;;;;;;;21.46;74.78;98596.94;4974785;28;20287;-90
2022/10/02 05:04:57;;;;;;;6.97;1.20;;;;;;;21.33;74.47;98594.72;4974057;28;20599;-91
2022/10/02 05:07:44;;;;;;;2.47;1.07;;;;;;;21.20;73.21;98590.84;4975083;28;20255;-87
2022/10/02 05:10:19;;;;;;;1.40;0.77;;;;;;;21.08;73.23;98600.94;4975000;28;20211;-88
2022/10/02 05:13:05;;;;;;;2.50;1.00;;;;;;;21.06;71.57;98594.94;4975152;28;20183;-86
2022/10/02 05:15:59;;;;;;;4.10;0.90;;;;;;;20.94;71.54;98590.03;4966951;28;20192;-87
2022/10/02 05:18:35;;;;;;;1.67;0.70;;;;;;;21.06;69.77;98592.28;4974862;28;20191;-88
2022/10/02 05:21:45;;;;;;;1.97;0.77;;;;;;;20.91;69.11;98593.81;4974852;28;20211;-88
2022/10/02 05:24:39;;;;;;;2.60;1.03;;;;;;;20.95;67.82;98597.84;4969787;28;20200;-88
2022/10/02 05:27:34;;;;;;;0.60;0.37;;;;;;;21.08;66.45;98602.78;4974325;28;20235;-89
2022/10/02 05:30:16;;;;;;;1.10;0.53;;;;;;;21.08;65.35;98598.28;4954630;28;20189;-87
2022/10/02 05:33:06;;;;;;;4.53;0.90;;;;;;;21.05;64.60;98603.06;4973499;28;20180;-87
2022/10/02 05:35:40;;;;;;;0.83;0.30;;;;;;;20.99;64.03;98596.53;4973604;28;20191;-88
2022/10/02 05:38:18;;;;;;;0.80;0.40;;;;;;;21.00;63.46;98614.19;4972943;28;20180;-88
2022/10/02 05:41:02;;;;;;;8.13;0.67;;;;;;;20.81;63.84;98615.25;4973334;28;20199;-88
2022/10/02 05:43:54;;;;;;;1.40;0.60;;;;;;;20.91;63.17;98617.78;4973980;28;20250;-88
2022/10/02 05:46:27;;;;;;;1.93;0.80;;;;;;;21.13;62.41;98614.63;4955354;28;20240;-89
2022/10/02 05:48:59;;;;;;;1.20;0.60;;;;;;;21.07;61.71;98622.44;4966366;28;20184;-87
2022/10/02 05:51:40;;;;;;;1.13;0.47;;;;;;;21.11;61.89;98629.09;4974167;28;20187;-88
2022/10/02 05:54:26;;;;;;;5.30;0.67;;;;;;;21.04;61.48;98618.19;4961035;28;20177;-90
2022/10/02 05:57:05;;;;;;;2.30;0.77;;;;;;;21.05;61.35;98624.38;4974335;28;20660;-87
2022/10/02 05:59:41;;;;;;;1.73;0.80;;;;;;;21.06;61.68;98626.06;4974184;28;20230;-88
2022/10/02 06:03:08;;;;;;;2.47;1.10;;;;;;;21.19;60.92;98635.31;4976738;28;20204;-87
2022/10/02 06:06:09;;;;;;;1.93;0.97;;;;;;;21.21;60.45;98629.81;4952954;29;20263;-88
2022/10/02 06:09:13;;;;;;;1.50;0.90;;;;;;;21.30;60.44;98640.34;4970107;28;20794;-86
2022/10/02 06:12:03;;;;;;;2.03;0.87;;;;;;;21.60;59.63;98632.78;4956345;28;20717;-88
2022/10/02 06:14:42;;;;;;;1.97;1.10;;;;;;;21.47;59.23;98633.25;4970881;28;20193;-89
2022/10/02 06:17:20;;;;;;;1.80;1.07;;;;;;;21.48;59.78;98634.09;4969927;28;20212;-87
2022/10/02 06:20:00;;;;;;;2.60;1.30;;;;;;;21.62;59.04;98638.81;4972729;28;20184;-88
2022/10/02 06:22:32;;;;;;;2.90;1.20;;;;;;;21.68;58.57;98651.50;4957782;28;20232;-89
2022/10/02 06:25:24;;;;;;;2.93;1.30;;;;;;;21.57;58.72;98643.78;4957715;28;20591;-89
2022/10/02 06:28:18;;;;;;;3.33;1.23;;;;;;;21.40;58.53;98657.09;4966637;28;20643;-87
2022/10/02 06:30:55;;;;;;;1.70;0.60;;;;;;;21.50;58.24;98651.59;4959219;28;20589;-91
2022/10/02 06:33:28;;;;;;;8.63;1.50;;;;;;;22.15;56.51;98647.28;4960862;28;20188;-92
2022/10/02 06:36:16;;;;;;;2.03;1.00;;;;;;;22.58;54.43;98643.47;4974246;28;20555;-92
2022/10/02 06:39:15;;;;;;;3.10;1.47;;;;;;;22.85;53.62;98666.34;4973625;28;20239;-90
2022/10/02 06:42:03;;;;;;;2.00;0.97;;;;;;;23.19;52.51;98658.94;4972555;28;20665;-90
2022/10/02 06:44:56;;;;;;;1.70;0.90;;;;;;;23.95;50.33;98656.41;4968203;28;20244;-89
2022/10/02 06:47:36;;;;;;;4.53;1.20;;;;;;;24.37;48.66;98675.59;4966571;28;20184;-90
2022/10/02 06:50:26;;;;;;;2.73;1.00;;;;;;;24.73;47.95;98667.75;4973577;28;20267;-89
2022/10/02 06:53:23;;;;;;;2.93;0.87;;;;;;;24.80;47.28;98667.88;4973489;28;20239;-89
2022/10/02 06:56:11;;;;;;;2.53;1.00;;;;;;;25.09;46.32;98673.31;4973445;28;20577;-89
2022/10/02 06:59:17;;;;;;;2.87;1.00;;;;;;;25.45;45.25;98673.38;4966193;28;20557;-90
2022/10/02 07:02:02;;;;;;;6.13;1.83;;;;;;;25.63;44.92;98681.91;4973074;28;20200;-89
2022/10/02 07:04:46;;;;;;;1.57;0.90;;;;;;;25.70;44.60;98685.53;4973725;28;20181;-89
2022/10/02 07:07:56;;;;;;;2.30;1.10;;;;;;;25.44;45.18;98693.22;4967186;28;20266;-89
2022/10/02 07:10:49;;;;;;;2.20;1.30;;;;;;;25.68;44.28;98706.38;4993164;28;20196;-90
2022/10/02 07:13:34;;;;;;;3.27;0.87;;;;;;;25.35;43.86;98697.84;4993030;28;20175;-91
2022/10/02 07:16:14;;;;;;;1.33;0.80;;;;;;;25.05;44.40;98694.28;4994977;28;20629;-92
2022/10/02 07:19:20;;;;;;;3.20;0.80;;;;;;;24.97;44.66;98691.69;4983964;28;20246;-89
2022/10/02 07:22:17;;;;;;;2.37;1.17;;;;;;;25.20;44.38;98706.88;4975965;28;20220;-89
2022/10/02 07:25:09;;;;;;;2.30;1.00;;;;;;;25.04;43.94;98706.03;4972739;28;20290;-88
2022/10/02 07:28:09;;;;;;;1.00;0.63;;;;;;;25.08;44.05;98708.38;4973289;28;20524;-86
2022/10/02 07:30:50;;;;;;;1.10;0.80;;;;;;;25.17;43.88;98713.44;4957558;28;20193;-89
2022/10/02 07:33:57;;;;;;;2.03;1.10;;;;;;;25.36;44.10;98712.09;4990032;28;20179;-88
2022/10/02 07:36:28;;;;;;;1.83;1.03;;;;;;;25.27;43.24;98730.09;4992216;28;20693;-88
2022/10/02 07:39:28;;;;;;;4.03;0.80;;;;;;;25.44;43.51;98722.72;4976360;28;20180;-88
2022/10/02 07:42:14;;;;;;;1.30;0.80;;;;;;;25.45;42.18;98732.44;4966502;28;20208;-94
2022/10/02 07:45:11;;;;;;;2.00;1.00;;;;;;;25.23;42.64;98714.56;4975586;28;20251;-90
2022/10/02 07:47:55;;;;;;;1.53;0.90;;;;;;;24.72;43.38;98708.97;4964008;28;20605;-89
2022/10/02 07:50:30;;;;;;;1.27;0.77;;;;;;;24.35;43.88;98701.72;4976768;28;20207;-90
2022/10/02 07:53:37;;;;;;;1.87;0.90;;;;;;;24.40;43.29;98698.50;4976309;28;20279;-92
2022/10/02 07:56:19;;;;;;;2.10;0.70;;;;;;;25.03;43.11;98693.63;4958553;28;20630;-92
2022/10/02 07:58:56;;;;;;;1.03;0.70;;;;;;;25.02;41.96;98680.41;4976475;28;20246;-94
2022/10/02 08:01:31;;;;;;;2.23;0.83;;;;;;;24.90;41.85;98685.38;4976263;28;20192;-88
2022/10/02 08:04:17;;;;;;;2.87;0.67;;;;;;;25.23;41.31;98687.75;4975806;28;20176;-90
2022/10/02 08:06:48;;;;;;;0.77;0.60;;;;;;;25.48;41.55;98689.16;4975735;28;20259;-89
2022/10/02 08:09:38;;;;;;;1.67;0.57;;;;;;;25.53;39.83;98692.94;4974398;28;20172;-91
2022/10/02 08:12:11;;;;;;;1.33;0.70;;;;;;;25.34;39.34;98693.47;4972630;28;20216;-90
2022/10/02 08:14:41;;;;;;;0.90;0.47;;;;;;;25.12;40.22;98688.19;4957177;28;20177;-89
2022/10/02 08:17:18;;;;;;;2.10;0.60;;;;;;;25.19;39.75;98681.91;4969607;28;20180;-89
2022/10/02 08:19:49;;;;;;;1.93;0.70;;;;;;;25.08;39.62;98686.91;4983779;28;20556;-90
2022/10/02 08:22:29;;;;;;;2.97;0.60;;;;;;;25.64;38.54;98678.22;4980193;28;20216;-90
2022/10/02 08:25:41;;;;;;;0.80;0.33;;;;;;;25.63;37.54;98680.06;4976865;28;20251;-90
2022/10/02 08:28:10;;;;;;;0.33;0.23;;;;;;;25.41;36.57;98674.78;4971438;28;20196;-92
2022/10/02 08:30:37;;;;;;;1.10;0.50;;;;;;;25.29;36.65;98695.88;4975865;28;20164;-89
2022/10/02 08:33:20;;;;;;;0.50;0.37;;;;;;;25.14;36.43;98718.34;4975831;28;20172;-93
2022/10/02 08:36:24;;;;;;;2.97;0.60;;;;;;;25.14;36.54;98705.78;4985996;28;20200;-90
2022/10/02 08:39:16;;;;;;;0.70;0.40;;;;;;;25.37;37.55;98703.84;4981079;28;20230;-89
2022/10/02 08:42:03;;;;;;;1.47;0.70;;;;;;;25.48;37.58;98711.47;4978914;28;20251;-90
2022/10/02 08:45:00;;;;;;;0.70;0.50;;;;;;;25.62;37.99;98707.13;4986597;28;20176;-88
2022/10/02 08:47:41;;;;;;;2.47;0.40;;;;;;;25.95;37.49;98708.34;4985195;28;20187;-87
2022/10/02 08:50:39;;;;;;;0.77;0.43;;;;;;;26.04;36.61;98701.03;4978281;28;20184;-87
2022/10/02 08:53:29;;;;;;;5.03;0.90;;;;;;;26.10;37.23;98702.97;4951513;28;20219;-88
2022/10/02 08:56:13;;;;;;;3.10;0.80;;;;;;;25.90;37.49;98694.66;4987731;28;20187;-90
2022/10/02 08:59:04;;;;;;;4.10;0.80;;;;;;;25.90;37.45;98688.47;4983701;28;20247;-91
2022/10/02 09:01:55;;;;;;;0.90;0.50;;;;;;;25.82;37.26;98662.53;4975148;28;20208;-88
2022/10/02 09:04:58;;;;;;;1.37;0.60;;;;;;;25.69;37.37;98675.81;4974588;28;20165;-91
2022/10/02 09:07:55;;;;;;;1.67;0.70;;;;;;;25.57;37.30;98674.63;4976853;28;20614;-89
2022/10/02 09:10:29;;;;;;;1.50;0.70;;;;;;;25.68;37.34;98694.81;4933485;28;20205;-92
2022/10/02 09:13:32;;;;;;;13.73;1.03;;;;;;;25.39;36.45;98669.59;4986242;28;20183;-88
2022/10/02 09:16:00;;;;;;;0.63;0.43;;;;;;;25.53;36.25;98684.91;4979176;28;20258;-87
2022/10/02 09:19:02;;;;;;;1.43;0.53;;;;;;;25.63;35.82;98672.03;4974925;28;20186;-89
2022/10/02 09:21:55;;;;;;;1.30;0.50;;;;;;;25.85;34.98;98658.66;4954751;28;20221;-90
2022/10/02 09:24:35;;;;;;;1.30;0.50;;;;;;;25.87;36.08;98684.28;4997236;28;20267;-89
2022/10/02 09:27:03;;;;;;;2.07;0.60;;;;;;;25.95;35.15;98683.34;4991348;28;20167;-88
2022/10/02 09:30:00;;;;;;;1.43;0.77;;;;;;;26.03;35.27;98686.75;4982181;28;20187;-89
2022/10/02 09:33:15;;;;;;;1.37;0.40;;;;;;;25.99;34.87;98690.03;4986028;28;20192;-89
2022/10/02 09:35:47;;;;;;;1.10;0.40;;;;;;;26.21;34.64;98703.31;4978014;28;20278;-87
2022/10/02 09:38:35;;;;;;;2.70;0.50;;;;;;;26.48;34.54;98709.81;4975824;28;20180;-89
2022/10/02 09:41:12;;;;;;;1.53;0.50;;;;;;;26.62;33.75;98718.84;4995365;28;20610;-88
2022/10/02 09:43:38;;;;;;;1.10;0.60;;;;;;;26.69;33.08;98727.78;4986700;28;20195;-88
2022/10/02 09:46:43;;;;;;;0.85;0.30;;;;;;;26.46;33.48;98719.09;4972218;28;20207;-87
2022/10/02 09:49:56;;;;;;;1.00;0.57;;;;;;;26.39;34.11;98705.56;4968973;28;20272;-88
2022/10/02 09:52:37;;;;;;;1.00;0.63;;;;;;;26.40;33.41;98714.47;4974654;28;20431;-87
2022/10/02 09:55:51;;;;;;;1.77;0.38;;;;;;;26.70;33.14;98716.03;4974173;28;20179;-89
2022/10/02 09:58:55;;;;;;;2.80;0.45;;;;;;;26.82;33.08;98725.25;4962966;28;20199;-89
2022/10/02 10:01:36;;;;;;;1.75;0.30;;;;;;;26.86;32.33;98717.63;4973217;28;20325;-94
2022/10/02 10:04:25;;;;;;;5.32;0.40;;;;;;;27.02;31.78;98720.06;4975989;28;20188;-88
2022/10/02 10:07:34;;;;;;;1.50;0.47;;;;;;;26.72;31.17;98740.84;4975730;28;20203;-88
2022/10/02 10:11:02;;;;;;;1.10;0.32;;;;;;;26.84;30.84;98723.19;4990885;28;20265;-89
2022/10/02 10:14:13;;;;;;;0.40;0.30;;;;;;;26.94;30.23;98737.13;4955057;28;20226;-90
2022/10/02 10:17:09;;;;;;;0.63;0.32;;;;;;;27.07;29.34;98709.53;4991923;28;20220;-90
2022/10/02 10:19:59;;;;;;;0.50;0.40;;;;;;;27.15;29.50;98695.94;4989189;28;20231;-87
2022/10/02 10:23:03;;;;;;;1.08;0.32;;;;;;;27.23;29.58;98701.13;4991710;28;20286;-91
2022/10/02 10:25:51;;;;;;;1.02;0.40;;;;;;;27.33;28.88;98718.59;4969773;28;20204;-89
2022/10/02 10:29:00;;;;;;;1.38;0.30;;;;;;;27.13;29.13;98709.56;4962637;28;20204;-89
2022/10/02 10:31:47;;;;;;;1.02;0.30;;;;;;;27.23;29.18;98703.81;4974152;28;20255;-87
2022/10/02 10:34:45;;;;;;;0.40;0.30;;;;;;;27.55;30.25;98699.72;4973931;28;20199;-88
2022/10/02 10:41:08;;;;;;;0.45;0.22;;;;;;;27.39;30.20;98699.00;4973744;28;20192;-87
2022/10/02 10:44:17;;;;;;;5.78;0.82;;;;;;;27.48;29.81;98690.78;4983262;28;20196;-88
2022/10/02 10:47:08;;;;;;;1.23;0.40;;;;;;;27.39;29.63;98701.69;4971943;28;20626;-89
2022/10/02 10:49:37;;;;;;;0.40;0.28;;;;;;;27.77;29.50;98707.50;4973158;28;20180;-87
2022/10/02 10:52:33;;;;;;;0.65;0.28;;;;;;;27.87;29.00;98707.13;4978123;28;20203;-90
2022/10/02 10:55:31;;;;;;;1.27;0.25;;;;;;;28.08;28.58;98709.72;4993848;28;20191;-89
2022/10/02 10:58:14;;;;;;;0.28;0.10;;;;;;;28.21;27.75;98699.00;4988714;28;20270;-88
2022/10/02 11:00:54;;;;;;;0.30;0.20;;;;;;;28.13;27.33;98728.81;4975388;28;20181;-90
2022/10/02 11:03:23;;;;;;;1.95;0.30;;;;;;;28.25;26.85;98715.59;4977234;28;20531;-89
2022/10/02 11:06:04;;;;;;;0.30;0.15;;;;;;;28.08;27.07;98707.03;4972047;28;20184;-89
2022/10/02 11:08:38;;;;;;;1.45;0.22;;;;;;;28.03;27.35;98707.66;4968591;28;20622;-89
2022/10/02 11:11:31;;;;;;;0.77;0.20;;;;;;;28.59;27.05;98705.50;4977768;28;20164;-88
2022/10/02 11:14:47;;;;;;;0.63;0.17;;;;;;;28.20;26.12;98723.47;4977459;28;20193;-92
2022/10/02 11:17:47;;;;;;;0.22;0.10;;;;;;;28.13;26.65;98684.88;4965547;28;20192;-88
2022/10/02 11:20:29;;;;;;;2.63;0.30;;;;;;;28.26;27.61;98685.72;4965470;28;20600;-89
2022/10/02 11:23:06;;;;;;;0.20;0.17;;;;;;;28.32;27.46;98684.94;4977462;28;20218;-89
2022/10/02 11:26:00;;;;;;;0.55;0.30;;;;;;;28.23;27.37;98683.44;4976480;28;20180;-92
2022/10/02 11:28:50;;;;;;;0.50;0.20;;;;;;;27.96;26.83;98689.78;4977142;28;20194;-88
2022/10/02 11:32:03;;;;;;;1.52;0.22;;;;;;;27.24;26.63;98679.44;4977221;28;20263;-89
2022/10/02 11:34:59;;;;;;;0.55;0.10;;;;;;;27.26;27.07;98684.59;4977195;28;20184;-88
2022/10/02 11:37:46;;;;;;;0.45;0.20;;;;;;;27.47;27.52;98681.88;4972899;28;20174;-89
2022/10/02 11:40:27;;;;;;;0.63;0.28;;;;;;;27.27;27.65;98672.81;4957877;28;20521;-89
2022/10/02 11:43:29;;;;;;;0.82;0.40;;;;;;;27.44;27.32;98674.19;4957937;28;20212;-87
2022/10/02 11:46:04;;;;;;;5.60;0.40;;;;;;;27.47;28.65;98659.50;4957860;28;20172;-91
2022/10/02 11:48:39;;;;;;;3.67;0.55;;;;;;;27.60;28.07;98670.31;4973106;28;20171;-88
2022/10/02 11:51:32;;;;;;;2.45;0.55;;;;;;;27.54;28.76;98655.00;4984976;28;20194;-90
2022/10/02 11:54:22;;;;;;;0.40;0.20;;;;;;;27.61;28.45;98664.75;4979704;28;20697;-90
2022/10/02 11:57:13;;;;;;;0.50;0.10;;;;;;;27.43;27.95;98668.00;4977922;28;20180;-91
2022/10/02 12:00:04;;;;;;;0.52;0.15;;;;;;;27.34;28.34;98689.84;4976070;28;20659;-89
2022/10/02 12:02:37;;;;;;;0.32;0.17;;;;;;;27.16;28.69;98676.88;4975746;28;20200;-92
2022/10/02 12:05:07;;;;;;;0.57;0.30;;;;;;;27.29;28.61;98690.44;4961480;28;20189;-88
2022/10/02 12:07:46;;;;;;;1.27;0.30;;;;;;;27.55;28.36;98707.78;4974435;28;20184;-88
2022/10/02 12:10:28;;;;;;;3.75;0.38;;;;;;;27.85;26.17;98711.91;4976779;28;20533;-88
2022/10/02 12:13:06;;;;;;;1.35;0.00;;;;;;;27.98;24.24;98720.03;4967451;28;20173;-89
2022/10/02 12:15:43;;;;;;;0.00;0.00;;;;;;;27.81;23.54;98729.47;4973086;28;20195;-92
2022/10/02 12:18:53;;;;;;;0.38;0.10;;;;;;;28.01;23.82;98736.63;4976628;28;20164;-88
2022/10/02 12:27:47;;;;;;;0.10;0.03;;;;;;;27.95;23.29;98744.69;4974502;28;20183;-86
2022/10/02 12:30:38;;;;;;;0.20;0.10;;;;;;;28.08;23.20;98742.06;4974468;28;20246;-88
2022/10/02 12:33:07;;;;;;;0.65;0.10;;;;;;;28.09;23.53;98753.69;4956762;28;20161;-88
2022/10/02 12:36:08;;;;;;;1.10;0.08;;;;;;;27.96;23.89;98733.69;4983588;28;20184;-88
2022/10/02 12:39:09;;;;;;;0.85;0.20;;;;;;;27.96;23.88;98749.03;4972812;28;20189;-90
2022/10/02 12:42:02;;;;;;;1.13;0.40;;;;;;;27.66;24.04;98739.56;4979298;28;20223;-88
2022/10/02 12:45:12;;;;;;;0.82;0.10;;;;;;;27.60;24.56;98740.34;4994619;28;20160;-89
2022/10/02 12:48:02;;;;;;;2.42;0.15;;;;;;;27.70;24.42;98740.84;4955040;29;20256;-87
2022/10/02 12:50:52;;;;;;;2.10;0.30;;;;;;;28.11;24.67;98741.66;4962037;28;20175;-88
2022/10/02 12:53:56;;;;;;;2.60;0.10;;;;;;;27.72;23.48;98752.22;4980872;28;20705;-85
2022/10/02 12:56:44;;;;;;;1.33;0.20;;;;;;;28.00;23.31;98764.59;4932263;29;20209;-87
2022/10/02 12:59:33;;;;;;;0.13;0.00;;;;;;;27.94;23.65;98768.09;4935108;29;20575;-89
2022/10/02 13:02:18;;;;;;;1.65;0.00;;;;;;;27.71;24.08;98772.94;4975728;28;20184;-90
2022/10/02 13:05:21;;;;;;;0.63;0.10;;;;;;;27.72;24.45;98777.31;4975687;28;20252;-87
2022/10/02 13:08:26;;;;;;;0.40;0.20;;;;;;;27.90;24.10;98782.16;4990550;28;20537;-88
2022/10/02 13:11:19;;;;;;;0.13;0.10;;;;;;;27.71;24.21;98772.09;4985191;28;20203;-89